Time;durP1;ratioP1;P1;durP2;ratioP2;P2;SDS_P1;SDS_P2;PMS_P1;PMS_P2;Temp;Humidity;BMP_temperature;BMP_pressure;BME280_temperature;BME280_humidity;BME280_pressure;Samples;Min_cycle;Max_cycle;Signal;HPM_P1;HPM_P2
2022/10/01 00:01:59;;;;;;;7.85;6.65;;;11.50;99.90;;;;;;4882071;29;20061;-66
2022/10/01 00:04:25;;;;;;;14.32;7.20;;;11.50;99.90;;;;;;4861359;29;20049;-66
2022/10/01 00:06:51;;;;;;;12.50;6.95;;;11.50;99.90;;;;;;4861564;29;20048;-66
2022/10/01 00:09:17;;;;;;;9.75;6.90;;;11.50;99.90;;;;;;4875906;29;20045;-66
2022/10/01 00:11:43;;;;;;;9.50;7.07;;;11.50;99.90;;;;;;4875837;29;20056;-66
2022/10/01 00:14:09;;;;;;;10.77;7.35;;;11.50;99.90;;;;;;4876406;29;20509;-66
2022/10/01 00:16:35;;;;;;;9.15;7.50;;;11.40;99.90;;;;;;4887622;29;20079;-66
2022/10/01 00:19:01;;;;;;;10.70;7.68;;;11.40;99.90;;;;;;4860713;29;20072;-66
2022/10/01 00:21:30;;;;;;;11.23;7.88;;;11.40;99.90;;;;;;4877353;29;20053;-66
2022/10/01 00:24:04;;;;;;;8.90;7.72;;;11.40;99.90;;;;;;4880435;29;20185;-65
2022/10/01 00:26:33;;;;;;;12.43;7.85;;;11.40;99.90;;;;;;4886578;29;20052;-66
2022/10/01 00:29:03;;;;;;;8.50;7.65;;;11.30;99.90;;;;;;4876306;29;20064;-65
2022/10/01 00:31:30;;;;;;;10.65;7.63;;;11.30;99.90;;;;;;4877312;29;20510;-66
2022/10/01 00:33:57;;;;;;;9.32;8.38;;;11.40;99.90;;;;;;4872357;29;20087;-65
2022/10/01 00:36:25;;;;;;;12.43;9.02;;;11.40;99.90;;;;;;4876295;29;20496;-65
2022/10/01 00:38:50;;;;;;;10.63;8.50;;;11.30;99.90;;;;;;4874458;29;20056;-66
2022/10/01 00:41:17;;;;;;;10.65;8.73;;;11.30;99.90;;;;;;4874965;29;20053;-66
2022/10/01 00:43:55;;;;;;;9.90;8.70;;;11.30;99.90;;;;;;4872316;29;20048;-65
2022/10/01 00:46:40;;;;;;;10.25;8.40;;;11.30;99.90;;;;;;4880416;29;20684;-65
2022/10/01 00:49:25;;;;;;;10.10;8.95;;;11.30;99.90;;;;;;4858722;29;20088;-65
2022/10/01 00:52:02;;;;;;;9.73;8.35;;;11.30;99.90;;;;;;4870610;29;20812;-65
2022/10/01 00:54:38;;;;;;;12.57;9.52;;;11.30;99.90;;;;;;4870062;29;20041;-65
2022/10/01 00:57:06;;;;;;;10.57;9.23;;;11.30;99.90;;;;;;4876391;29;20528;-65
2022/10/01 00:59:33;;;;;;;10.50;9.00;;;11.30;99.90;;;;;;4871770;29;20060;-65
2022/10/01 01:01:59;;;;;;;11.70;9.25;;;11.30;99.90;;;;;;4879100;29;22097;-65
2022/10/01 01:04:26;;;;;;;11.75;9.95;;;11.20;99.90;;;;;;4870708;29;20053;-66
2022/10/01 01:06:56;;;;;;;14.00;10.13;;;11.20;99.90;;;;;;4855906;29;20060;-66
2022/10/01 01:09:37;;;;;;;12.43;9.90;;;11.20;99.90;;;;;;4872465;29;20516;-65
2022/10/01 01:12:23;;;;;;;12.02;9.55;;;11.20;99.90;;;;;;4874236;29;20071;-65
2022/10/01 01:15:20;;;;;;;12.63;9.85;;;11.20;99.90;;;;;;4868992;29;20244;-66
2022/10/01 01:18:16;;;;;;;12.55;9.68;;;11.20;99.90;;;;;;4872512;29;20048;-65
2022/10/01 01:21:09;;;;;;;12.82;9.77;;;11.20;99.90;;;;;;4870410;29;20052;-65
2022/10/01 01:24:04;;;;;;;11.52;9.00;;;11.20;99.90;;;;;;4886577;29;20045;-66
2022/10/01 01:26:43;;;;;;;11.27;9.13;;;11.20;99.90;;;;;;4889551;29;20048;-65
2022/10/01 01:29:54;;;;;;;10.50;9.30;;;11.20;99.90;;;;;;4885533;29;20049;-66
2022/10/01 01:32:48;;;;;;;10.20;9.10;;;11.20;99.90;;;;;;4835325;29;20496;-65
2022/10/01 01:35:30;;;;;;;12.60;8.90;;;11.10;99.90;;;;;;4849624;29;20068;-65
2022/10/01 01:38:02;;;;;;;13.75;8.88;;;11.10;99.90;;;;;;4880312;29;20045;-65
2022/10/01 01:40:30;;;;;;;10.82;9.15;;;11.10;99.90;;;;;;4874606;29;20084;-64
2022/10/01 01:42:57;;;;;;;11.98;9.02;;;11.10;99.90;;;;;;4872064;29;20051;-64
2022/10/01 01:45:28;;;;;;;13.00;9.75;;;11.10;99.90;;;;;;4871320;29;20112;-65
2022/10/01 01:47:56;;;;;;;11.57;9.50;;;11.10;99.90;;;;;;4871087;29;20048;-65
2022/10/01 01:50:27;;;;;;;10.45;8.93;;;11.10;99.90;;;;;;4879934;29;20131;-65
2022/10/01 01:52:54;;;;;;;10.05;8.98;;;11.10;99.90;;;;;;4890174;29;20053;-65
2022/10/01 01:55:24;;;;;;;11.18;9.57;;;11.10;99.90;;;;;;4876340;29;20167;-65
2022/10/01 01:57:52;;;;;;;9.93;8.38;;;11.10;99.90;;;;;;4875657;29;20053;-65
2022/10/01 02:00:17;;;;;;;11.73;8.63;;;11.10;99.90;;;;;;4890401;29;20041;-64
2022/10/01 02:02:49;;;;;;;10.05;8.20;;;11.10;99.90;;;;;;4885733;29;20056;-65
2022/10/01 02:05:19;;;;;;;9.38;7.60;;;11.10;99.90;;;;;;4864721;29;20494;-65
2022/10/01 02:08:17;;;;;;;9.02;8.00;;;11.10;99.90;;;;;;4885916;29;20129;-64
2022/10/01 02:10:49;;;;;;;8.50;7.65;;;11.10;99.90;;;;;;4872509;29;20049;-65
2022/10/01 02:13:27;;;;;;;7.90;7.10;;;11.10;99.90;;;;;;4874867;29;20060;-65
2022/10/01 02:15:58;;;;;;;11.90;7.60;;;11.10;99.90;;;;;;4880906;29;21268;-65
2022/10/01 02:18:45;;;;;;;8.60;7.70;;;11.00;99.90;;;;;;4881194;29;20087;-66
2022/10/01 02:21:29;;;;;;;8.30;6.68;;;11.10;99.90;;;;;;4870107;29;20055;-65
2022/10/01 02:24:33;;;;;;;8.05;7.22;;;11.10;99.90;;;;;;4873029;29;20127;-65
2022/10/01 02:27:05;;;;;;;7.60;6.80;;;11.10;99.90;;;;;;4873265;29;20115;-65
2022/10/01 02:29:32;;;;;;;7.63;6.65;;;11.10;99.90;;;;;;4874699;29;20080;-65
2022/10/01 02:31:59;;;;;;;8.02;6.32;;;11.10;99.90;;;;;;4888370;29;20063;-65
2022/10/01 02:34:29;;;;;;;8.38;6.93;;;11.10;99.90;;;;;;4880581;29;20077;-65
2022/10/01 02:36:59;;;;;;;8.20;6.80;;;11.10;99.90;;;;;;4874261;29;20123;-65
2022/10/01 02:39:27;;;;;;;7.30;6.28;;;11.00;99.90;;;;;;4872901;29;20072;-65
2022/10/01 02:41:55;;;;;;;9.18;6.45;;;11.10;99.90;;;;;;4871956;29;20049;-65
2022/10/01 02:44:28;;;;;;;7.25;6.18;;;11.00;99.90;;;;;;4888454;29;20059;-66
2022/10/01 02:47:06;;;;;;;7.20;6.05;;;11.00;99.90;;;;;;4873287;29;20516;-66
2022/10/01 02:49:34;;;;;;;7.40;6.22;;;11.00;99.90;;;;;;4872670;29;20722;-65
2022/10/01 02:52:06;;;;;;;6.25;5.63;;;11.00;99.90;;;;;;4884343;29;20163;-65
2022/10/01 02:54:41;;;;;;;6.70;6.03;;;11.00;99.90;;;;;;4869999;29;20096;-65
2022/10/01 02:57:23;;;;;;;6.65;5.80;;;11.00;99.90;;;;;;4875336;29;22492;-65
2022/10/01 02:59:56;;;;;;;6.72;5.80;;;11.00;99.90;;;;;;4874297;29;20076;-65
2022/10/01 03:02:27;;;;;;;6.93;5.40;;;11.00;99.90;;;;;;4876169;29;20047;-65
2022/10/01 03:04:55;;;;;;;8.10;5.85;;;11.00;99.90;;;;;;4875434;29;20056;-66
2022/10/01 03:07:21;;;;;;;7.65;5.47;;;11.00;99.90;;;;;;4872210;29;20060;-66
2022/10/01 03:09:48;;;;;;;7.57;5.32;;;11.10;99.90;;;;;;4878345;29;20109;-66
2022/10/01 03:12:15;;;;;;;7.88;6.28;;;11.10;99.90;;;;;;4891700;29;20080;-66
2022/10/01 03:14:46;;;;;;;5.88;5.30;;;11.10;99.90;;;;;;4875952;29;20059;-66
2022/10/01 03:17:13;;;;;;;6.55;5.40;;;11.10;99.90;;;;;;4882617;29;20059;-66
2022/10/01 03:19:40;;;;;;;5.40;4.90;;;11.10;99.90;;;;;;4877796;29;20146;-65
2022/10/01 03:22:07;;;;;;;7.05;5.45;;;11.20;99.90;;;;;;4891193;29;20063;-65
2022/10/01 03:24:33;;;;;;;5.65;5.13;;;11.20;99.90;;;;;;4875708;29;20585;-66
2022/10/01 03:26:59;;;;;;;5.82;5.28;;;11.20;99.90;;;;;;4868962;29;20056;-66
2022/10/01 03:29:25;;;;;;;5.70;5.10;;;11.20;99.90;;;;;;4877340;29;20072;-66
2022/10/01 03:31:52;;;;;;;5.82;5.10;;;11.20;99.90;;;;;;4878090;29;20053;-66
2022/10/01 03:34:18;;;;;;;7.35;4.80;;;11.20;99.90;;;;;;4892041;29;20109;-66
2022/10/01 03:36:45;;;;;;;5.40;4.50;;;11.20;99.90;;;;;;4863951;29;20578;-66
2022/10/01 03:39:11;;;;;;;5.35;4.85;;;11.20;99.90;;;;;;4892452;29;20399;-66
2022/10/01 03:41:38;;;;;;;4.95;4.13;;;11.20;99.90;;;;;;4850366;29;20060;-66
2022/10/01 03:44:04;;;;;;;5.78;4.57;;;11.20;99.90;;;;;;4880493;29;20053;-67
2022/10/01 03:46:30;;;;;;;4.95;4.20;;;11.30;99.90;;;;;;4872842;29;20511;-66
2022/10/01 03:48:59;;;;;;;4.15;3.72;;;11.30;99.90;;;;;;4888777;29;20712;-66
2022/10/01 03:51:29;;;;;;;4.50;3.50;;;11.30;99.90;;;;;;4877029;29;20080;-66
2022/10/01 03:53:56;;;;;;;3.58;3.28;;;11.30;99.90;;;;;;4879360;29;20044;-67
2022/10/01 03:56:22;;;;;;;6.78;3.60;;;11.40;99.90;;;;;;4876695;29;20059;-66
2022/10/01 03:58:48;;;;;;;6.70;3.42;;;11.40;99.90;;;;;;4877402;29;20076;-66
2022/10/01 04:01:14;;;;;;;3.05;2.83;;;11.40;99.90;;;;;;4893535;29;20508;-66
2022/10/01 04:03:40;;;;;;;3.15;2.85;;;11.40;99.90;;;;;;4890896;29;20096;-66
2022/10/01 04:06:06;;;;;;;3.35;2.90;;;11.40;99.90;;;;;;4873778;29;20572;-65
2022/10/01 04:08:33;;;;;;;3.85;3.00;;;11.40;99.90;;;;;;4861971;29;20087;-66
2022/10/01 04:10:59;;;;;;;3.20;2.90;;;11.50;99.90;;;;;;4881765;29;20048;-66
2022/10/01 04:13:26;;;;;;;4.13;2.55;;;11.40;99.90;;;;;;4871864;29;20079;-66
2022/10/01 04:15:52;;;;;;;3.20;2.90;;;11.50;99.90;;;;;;4873746;29;20045;-66
2022/10/01 04:18:20;;;;;;;4.03;3.25;;;11.40;99.90;;;;;;4881700;29;20052;-66
2022/10/01 04:20:46;;;;;;;4.18;3.30;;;11.50;99.90;;;;;;4889818;29;20041;-66
2022/10/01 04:23:13;;;;;;;3.65;3.22;;;11.50;99.90;;;;;;4890290;29;20139;-65
2022/10/01 04:25:39;;;;;;;3.13;2.83;;;11.50;99.90;;;;;;4875861;29;20049;-65
2022/10/01 04:28:07;;;;;;;4.88;3.20;;;11.50;99.90;;;;;;4877020;29;20053;-65
2022/10/01 04:30:38;;;;;;;3.65;3.22;;;11.50;99.90;;;;;;4875010;29;20579;-65
2022/10/01 04:33:05;;;;;;;3.50;2.78;;;11.50;99.90;;;;;;4883551;29;20981;-65
2022/10/01 04:35:33;;;;;;;5.10;3.72;;;11.50;99.90;;;;;;4880368;29;20772;-66
2022/10/01 04:38:05;;;;;;;7.03;6.00;;;11.50;99.90;;;;;;4880856;29;20064;-66
2022/10/01 04:40:34;;;;;;;5.57;4.80;;;11.50;99.90;;;;;;4861146;29;20128;-66
2022/10/01 04:43:04;;;;;;;3.83;3.45;;;11.50;99.90;;;;;;4874759;29;20064;-66
2022/10/01 04:45:31;;;;;;;7.20;6.45;;;11.50;99.90;;;;;;4889465;29;20564;-66
2022/10/01 04:47:58;;;;;;;4.28;3.88;;;11.50;99.90;;;;;;4874839;29;20515;-66
2022/10/01 04:50:26;;;;;;;10.63;7.55;;;11.60;99.90;;;;;;4875037;29;20063;-66
2022/10/01 04:52:52;;;;;;;8.68;7.10;;;11.60;99.90;;;;;;4873532;29;20049;-66
2022/10/01 04:55:19;;;;;;;10.13;8.52;;;11.60;99.90;;;;;;4876914;29;20142;-66
2022/10/01 04:57:46;;;;;;;7.13;6.20;;;11.60;99.90;;;;;;4890254;29;20756;-66
2022/10/01 05:00:15;;;;;;;6.90;6.20;;;11.60;99.90;;;;;;4883549;29;20045;-64
2022/10/01 05:02:45;;;;;;;5.80;5.20;;;11.60;99.90;;;;;;4868699;29;20149;-66
2022/10/01 05:05:11;;;;;;;6.35;5.03;;;11.60;99.90;;;;;;4878075;29;20116;-66
2022/10/01 05:07:38;;;;;;;5.47;4.00;;;11.70;99.90;;;;;;4888787;29;20048;-66
2022/10/01 05:10:05;;;;;;;7.82;6.63;;;11.70;99.90;;;;;;4892002;29;20056;-66
2022/10/01 05:12:32;;;;;;;10.85;7.60;;;11.70;99.90;;;;;;4871969;29;20067;-66
2022/10/01 05:14:59;;;;;;;8.38;7.40;;;11.70;99.90;;;;;;4870664;29;20052;-66
2022/10/01 05:17:25;;;;;;;8.60;7.15;;;11.70;99.90;;;;;;4854427;29;20071;-66
2022/10/01 05:19:51;;;;;;;7.78;5.25;;;11.70;99.90;;;;;;4879408;29;20040;-66
2022/10/01 05:22:18;;;;;;;9.00;6.85;;;11.70;99.90;;;;;;4883765;29;20070;-66
2022/10/01 05:24:43;;;;;;;7.30;5.80;;;11.70;99.90;;;;;;4888195;29;20127;-66
2022/10/01 05:27:12;;;;;;;5.80;5.18;;;11.70;99.90;;;;;;4885172;29;20639;-67
2022/10/01 05:29:40;;;;;;;8.98;7.70;;;11.70;99.90;;;;;;4885040;29;20495;-66
2022/10/01 05:32:10;;;;;;;9.35;7.65;;;11.80;99.90;;;;;;4872268;29;20067;-66
2022/10/01 05:34:37;;;;;;;7.47;6.53;;;11.70;99.90;;;;;;4874927;29;20100;-66
2022/10/01 05:37:03;;;;;;;8.75;5.85;;;11.80;99.90;;;;;;4870844;29;20116;-66
2022/10/01 05:39:30;;;;;;;5.68;5.07;;;11.80;99.90;;;;;;4857546;29;20168;-66
2022/10/01 05:41:56;;;;;;;6.55;5.15;;;11.80;99.90;;;;;;4886775;29;20057;-66
2022/10/01 05:44:23;;;;;;;5.47;4.30;;;11.80;99.90;;;;;;4878305;29;20056;-66
2022/10/01 05:46:49;;;;;;;6.68;4.93;;;11.80;99.90;;;;;;4855569;29;20062;-66
2022/10/01 05:49:16;;;;;;;5.03;4.55;;;11.80;99.90;;;;;;4875637;29;20052;-66
2022/10/01 05:51:43;;;;;;;8.52;5.65;;;11.80;99.90;;;;;;4873714;29;20170;-66
2022/10/01 05:54:10;;;;;;;5.55;5.05;;;11.90;99.90;;;;;;4885257;29;20044;-66
2022/10/01 05:56:35;;;;;;;5.85;5.22;;;11.90;99.90;;;;;;4887458;29;20099;-66
2022/10/01 05:59:02;;;;;;;6.00;5.38;;;11.90;99.90;;;;;;4876622;29;20049;-66
2022/10/01 06:01:28;;;;;;;6.85;5.38;;;11.90;99.90;;;;;;4860747;29;20767;-66
2022/10/01 06:03:54;;;;;;;9.63;5.80;;;11.90;99.90;;;;;;4878073;29;20056;-67
2022/10/01 06:06:24;;;;;;;6.72;5.45;;;11.90;99.90;;;;;;4883080;29;20128;-66
2022/10/01 06:08:50;;;;;;;8.52;5.50;;;12.00;99.90;;;;;;4864755;29;20068;-66
2022/10/01 06:11:16;;;;;;;7.15;5.80;;;12.00;99.90;;;;;;4865480;29;20052;-66
2022/10/01 06:13:44;;;;;;;8.85;5.57;;;12.00;99.90;;;;;;4879605;29;20057;-66
2022/10/01 06:16:14;;;;;;;6.45;5.43;;;12.00;99.90;;;;;;4877077;29;20049;-66
2022/10/01 06:18:40;;;;;;;9.93;5.90;;;12.00;99.90;;;;;;4868558;29;20052;-66
2022/10/01 06:21:07;;;;;;;7.55;5.10;;;12.10;99.90;;;;;;4892578;29;20056;-66
2022/10/01 06:23:33;;;;;;;7.72;5.35;;;12.10;99.90;;;;;;4860882;29;20053;-66
2022/10/01 06:26:00;;;;;;;7.07;5.60;;;12.10;99.90;;;;;;4875074;29;20072;-66
2022/10/01 06:28:26;;;;;;;9.15;5.82;;;12.10;99.90;;;;;;4882960;29;20052;-66
2022/10/01 06:30:52;;;;;;;9.20;5.90;;;12.10;99.90;;;;;;4891153;29;20051;-66
2022/10/01 06:33:18;;;;;;;8.70;5.63;;;12.10;99.90;;;;;;4882052;29;20513;-66
2022/10/01 06:35:47;;;;;;;9.88;5.70;;;12.10;99.90;;;;;;4880168;29;20104;-66
2022/10/01 06:38:13;;;;;;;12.73;6.05;;;12.10;99.90;;;;;;4865219;29;20044;-66
2022/10/01 06:40:39;;;;;;;9.63;6.55;;;12.00;99.90;;;;;;4870530;29;20496;-66
2022/10/01 06:43:09;;;;;;;7.20;5.32;;;12.10;99.90;;;;;;4878854;29;20045;-66
2022/10/01 06:45:42;;;;;;;8.23;5.78;;;12.10;99.90;;;;;;4880613;29;20135;-66
2022/10/01 06:48:12;;;;;;;12.50;6.10;;;12.10;99.90;;;;;;4878328;29;20049;-66
2022/10/01 06:50:39;;;;;;;11.65;6.28;;;12.10;99.90;;;;;;4878000;29;20056;-66
2022/10/01 06:53:05;;;;;;;16.83;6.57;;;12.20;99.90;;;;;;4881154;29;20178;-66
2022/10/01 06:55:33;;;;;;;13.02;6.85;;;12.20;99.90;;;;;;4881875;29;20040;-66
2022/10/01 06:58:14;;;;;;;14.65;6.85;;;12.30;99.90;;;;;;4870966;29;20079;-66
2022/10/01 07:00:40;;;;;;;10.02;6.78;;;12.30;99.90;;;;;;4886891;29;20598;-66
2022/10/01 07:03:10;;;;;;;12.40;6.10;;;12.40;99.90;;;;;;4886618;29;20544;-66
2022/10/01 07:05:38;;;;;;;11.93;7.05;;;12.40;99.90;;;;;;4878967;29;20142;-66
2022/10/01 07:08:05;;;;;;;12.40;7.10;;;12.50;99.90;;;;;;4895896;29;20057;-66
2022/10/01 07:10:31;;;;;;;14.68;6.45;;;12.60;99.90;;;;;;4867056;29;20720;-66
2022/10/01 07:13:15;;;;;;;14.57;6.80;;;12.60;99.90;;;;;;4894273;29;20065;-67
2022/10/01 07:15:42;;;;;;;14.43;7.00;;;12.70;99.90;;;;;;4882802;29;20045;-66
2022/10/01 07:18:09;;;;;;;13.10;6.45;;;12.80;99.90;;;;;;4895982;29;20086;-66
2022/10/01 07:20:38;;;;;;;15.77;6.75;;;12.80;99.90;;;;;;4887201;29;20144;-66
2022/10/01 07:23:05;;;;;;;19.83;6.68;;;12.90;99.90;;;;;;4891645;29;20097;-66
2022/10/01 07:25:31;;;;;;;13.15;6.45;;;12.90;99.90;;;;;;4893330;29;20060;-66
2022/10/01 07:28:00;;;;;;;15.80;6.88;;;13.00;99.90;;;;;;4880015;29;20468;-67
2022/10/01 07:30:27;;;;;;;10.48;5.28;;;13.00;99.90;;;;;;4876796;29;20053;-66
2022/10/01 07:32:53;;;;;;;14.45;5.43;;;13.00;99.90;;;;;;4892654;29;20080;-66
2022/10/01 07:35:19;;;;;;;17.40;5.30;;;13.00;99.90;;;;;;4879513;29;20396;-66
2022/10/01 07:37:49;;;;;;;13.32;5.32;;;13.00;99.90;;;;;;4894758;29;20045;-66
2022/10/01 07:40:17;;;;;;;13.07;4.70;;;13.00;99.90;;;;;;4886303;29;20041;-66
2022/10/01 07:42:53;;;;;;;17.58;4.80;;;13.00;99.90;;;;;;4877426;29;20053;-67
2022/10/01 07:45:20;;;;;;;20.20;5.10;;;13.00;99.90;;;;;;4879383;29;20560;-66
2022/10/01 07:47:58;;;;;;;15.75;5.32;;;13.10;99.90;;;;;;4870352;29;20515;-66
2022/10/01 07:50:25;;;;;;;16.30;4.72;;;13.20;99.90;;;;;;4879736;29;20117;-67
2022/10/01 07:52:52;;;;;;;14.02;4.80;;;13.20;99.90;;;;;;4861759;29;20834;-67
2022/10/01 07:55:20;;;;;;;16.55;4.43;;;13.30;99.90;;;;;;4872011;29;20048;-66
2022/10/01 07:57:56;;;;;;;15.68;4.55;;;13.40;99.90;;;;;;4888034;29;20048;-67
2022/10/01 08:00:25;;;;;;;16.38;4.35;;;13.50;99.90;;;;;;4879704;29;20096;-67
2022/10/01 08:02:52;;;;;;;13.57;4.55;;;13.50;99.90;;;;;;4877867;29;20053;-66
2022/10/01 08:05:20;;;;;;;18.42;3.78;;;13.70;99.90;;;;;;4876865;29;20481;-67
2022/10/01 08:07:47;;;;;;;13.90;3.65;;;13.80;99.90;;;;;;4878044;29;20059;-67
2022/10/01 08:10:16;;;;;;;13.07;3.83;;;13.90;99.90;;;;;;4895547;29;20088;-67
2022/10/01 08:12:42;;;;;;;15.52;3.50;;;14.10;99.90;;;;;;4884722;29;20458;-67
2022/10/01 08:15:12;;;;;;;11.05;2.75;;;14.20;99.90;;;;;;4865627;29;20041;-65
2022/10/01 08:17:38;;;;;;;17.98;2.78;;;14.30;99.90;;;;;;4872932;29;20049;-65
2022/10/01 08:20:06;;;;;;;12.40;2.60;;;14.40;99.90;;;;;;4893621;29;20084;-65
2022/10/01 08:22:33;;;;;;;15.48;3.15;;;14.50;99.90;;;;;;4877914;29;20061;-65
2022/10/01 08:24:58;;;;;;;12.13;3.40;;;14.60;99.90;;;;;;4876289;29;20097;-67
2022/10/01 08:27:25;;;;;;;12.82;2.45;;;14.70;99.90;;;;;;4870042;29;20045;-67
2022/10/01 08:29:52;;;;;;;13.98;2.85;;;14.80;99.90;;;;;;4879241;29;20069;-67
2022/10/01 08:32:18;;;;;;;14.68;3.13;;;14.90;99.90;;;;;;4879536;29;20097;-67
2022/10/01 08:34:45;;;;;;;20.85;2.95;;;15.00;99.90;;;;;;4878194;29;20053;-67
2022/10/01 08:37:11;;;;;;;15.57;2.90;;;15.10;99.90;;;;;;4892211;29;20489;-67
2022/10/01 08:39:37;;;;;;;17.90;2.78;;;15.30;99.90;;;;;;4874120;29;20052;-67
2022/10/01 08:42:16;;;;;;;14.90;2.50;;;15.40;99.90;;;;;;4894733;29;20084;-67
2022/10/01 08:44:44;;;;;;;12.38;2.60;;;15.50;99.90;;;;;;4880148;29;20052;-67
2022/10/01 08:47:25;;;;;;;14.32;2.42;;;15.70;99.90;;;;;;4889855;29;20221;-67
2022/10/01 08:49:55;;;;;;;13.77;3.25;;;15.90;99.90;;;;;;4895085;29;20056;-67
2022/10/01 08:52:30;;;;;;;12.25;2.40;;;15.90;99.90;;;;;;4887349;29;20104;-67
2022/10/01 08:55:00;;;;;;;13.93;2.30;;;16.10;99.90;;;;;;4877475;29;20064;-67
2022/10/01 08:57:35;;;;;;;16.08;2.47;;;16.20;99.90;;;;;;4892236;29;20073;-67
2022/10/01 09:00:06;;;;;;;15.48;3.00;;;16.20;99.90;;;;;;4877368;29;20531;-67
2022/10/01 09:02:36;;;;;;;14.23;2.58;;;16.20;99.90;;;;;;4884655;29;20053;-67
2022/10/01 09:05:12;;;;;;;12.65;2.55;;;16.10;99.90;;;;;;4886101;29;20132;-67
2022/10/01 09:08:14;;;;;;;18.38;2.90;;;16.10;99.90;;;;;;4888433;29;20057;-67
2022/10/01 09:11:03;;;;;;;9.85;2.42;;;16.10;99.90;;;;;;4879974;29;20045;-67
2022/10/01 09:13:46;;;;;;;11.27;2.88;;;16.30;99.90;;;;;;4889320;29;20060;-68
2022/10/01 09:16:41;;;;;;;12.70;2.50;;;16.30;99.90;;;;;;4875410;29;20078;-67
2022/10/01 09:19:25;;;;;;;15.40;2.42;;;16.30;99.90;;;;;;4861554;29;20053;-67
2022/10/01 09:21:58;;;;;;;14.40;2.42;;;16.40;99.90;;;;;;4892900;29;20053;-67
2022/10/01 09:24:27;;;;;;;11.43;2.33;;;16.50;99.90;;;;;;4858056;29;20083;-67
2022/10/01 09:26:53;;;;;;;16.70;2.35;;;16.60;99.90;;;;;;4875859;29;20386;-67
2022/10/01 09:30:00;;;;;;;15.32;2.50;;;16.70;99.90;;;;;;4877977;29;20067;-67
2022/10/01 09:32:42;;;;;;;11.88;2.22;;;16.80;99.90;;;;;;4845655;29;20704;-67
2022/10/01 09:35:35;;;;;;;7.28;1.95;;;17.00;99.90;;;;;;4871423;29;20052;-67
2022/10/01 09:38:16;;;;;;;13.50;2.90;;;17.10;99.90;;;;;;4881420;29;20064;-67
2022/10/01 09:40:56;;;;;;;9.95;2.35;;;17.20;99.90;;;;;;4874720;29;20083;-67
2022/10/01 09:43:30;;;;;;;11.77;2.28;;;17.20;99.90;;;;;;4859205;29;20052;-67
2022/10/01 09:45:56;;;;;;;11.05;2.25;;;17.30;99.90;;;;;;4889513;29;20540;-67
2022/10/01 09:49:00;;;;;;;12.27;1.80;;;17.40;99.90;;;;;;4874032;29;20055;-67
2022/10/01 09:51:31;;;;;;;;;;;17.40;99.90;;;;;;4873024;29;20064;-67
2022/10/01 09:54:27;;;;;;;5.88;1.52;;;17.20;99.90;;;;;;4881653;29;19978;-67
2022/10/01 09:57:04;;;;;;;6.68;1.50;;;16.90;99.90;;;;;;4874375;29;20059;-66
2022/10/01 09:59:40;;;;;;;7.30;1.70;;;16.50;99.90;;;;;;4879874;29;20049;-66
2022/10/01 10:02:25;;;;;;;6.28;1.70;;;16.20;99.90;;;;;;4872066;29;20135;-66
2022/10/01 10:05:08;;;;;;;5.72;1.27;;;16.00;99.90;;;;;;4888293;29;20052;-66
2022/10/01 10:07:35;;;;;;;;;;;15.80;99.90;;;;;;4875452;29;20055;-66
2022/10/01 10:10:20;;;;;;;5.45;1.50;;;15.50;99.90;;;;;;4883423;29;19979;-66
2022/10/01 10:12:52;;;;;;;7.50;1.48;;;15.40;99.90;;;;;;4876742;29;20528;-64
2022/10/01 10:15:21;;;;;;;8.50;1.88;;;15.30;99.90;;;;;;4864182;29;20047;-64
2022/10/01 10:17:50;;;;;;;8.80;2.08;;;15.20;99.90;;;;;;4875827;29;20056;-65
2022/10/01 10:20:22;;;;;;;8.27;1.73;;;15.10;99.90;;;;;;4889802;29;20049;-65
2022/10/01 10:22:48;;;;;;;9.00;1.80;;;14.90;99.90;;;;;;4879063;29;20453;-65
2022/10/01 10:25:22;;;;;;;8.27;1.50;;;14.80;99.90;;;;;;4878343;29;20052;-66
2022/10/01 10:27:54;;;;;;;6.32;1.50;;;14.60;99.90;;;;;;4860528;29;20059;-65
2022/10/01 10:30:25;;;;;;;5.45;1.33;;;14.50;99.90;;;;;;4875353;29;20143;-66
2022/10/01 10:33:01;;;;;;;5.32;1.80;;;14.40;99.90;;;;;;4878867;29;20057;-65
2022/10/01 10:35:27;;;;;;;5.47;1.10;;;14.20;99.90;;;;;;4875561;29;20045;-65
2022/10/01 10:37:56;;;;;;;5.03;1.10;;;14.10;99.90;;;;;;4875696;29;20048;-65
2022/10/01 10:40:40;;;;;;;6.03;1.20;;;14.00;99.90;;;;;;4882500;29;20052;-65
2022/10/01 10:43:21;;;;;;;5.57;1.00;;;13.90;99.90;;;;;;4882486;29;20057;-65
2022/10/01 10:45:54;;;;;;;5.18;1.15;;;13.80;99.90;;;;;;4876055;29;20135;-65
2022/10/01 10:48:23;;;;;;;3.25;1.13;;;13.70;99.90;;;;;;4880353;29;20492;-65
2022/10/01 10:50:56;;;;;;;2.78;0.95;;;13.70;99.90;;;;;;4877218;29;20056;-65
2022/10/01 10:53:25;;;;;;;3.97;1.10;;;13.80;99.90;;;;;;4890972;29;20175;-66
2022/10/01 10:55:54;;;;;;;2.90;1.20;;;13.80;99.90;;;;;;4876608;29;20120;-66
2022/10/01 10:58:24;;;;;;;4.75;1.00;;;13.90;99.90;;;;;;4861330;29;20045;-65
2022/10/01 11:00:52;;;;;;;6.53;1.10;;;13.90;99.90;;;;;;4863308;29;20119;-66
2022/10/01 11:03:24;;;;;;;5.93;1.63;;;14.10;99.90;;;;;;4853580;29;20072;-66
2022/10/01 11:05:54;;;;;;;4.90;1.30;;;14.10;99.90;;;;;;4862468;29;20049;-65
2022/10/01 11:08:27;;;;;;;4.72;1.27;;;14.20;99.90;;;;;;4869342;29;20052;-65
2022/10/01 11:11:08;;;;;;;6.82;1.40;;;14.20;99.90;;;;;;4875965;29;20048;-65
2022/10/01 11:13:57;;;;;;;2.75;1.20;;;14.20;99.90;;;;;;4858141;29;20112;-66
2022/10/01 11:16:50;;;;;;;6.40;1.35;;;14.30;99.90;;;;;;4872694;29;20428;-66
2022/10/01 11:19:40;;;;;;;7.90;1.35;;;14.30;99.90;;;;;;4890508;29;20053;-66
2022/10/01 11:22:28;;;;;;;3.70;1.55;;;14.60;99.90;;;;;;4876721;29;20051;-66
2022/10/01 11:25:02;;;;;;;5.45;1.20;;;14.80;99.90;;;;;;4876536;29;20057;-66
2022/10/01 11:28:11;;;;;;;8.57;1.25;;;15.00;99.90;;;;;;4882059;29;20048;-66
2022/10/01 11:30:44;;;;;;;5.18;1.30;;;15.20;99.90;;;;;;4879081;29;20147;-66
2022/10/01 11:33:16;;;;;;;6.95;1.30;;;15.50;99.90;;;;;;4879970;29;20460;-64
2022/10/01 11:36:00;;;;;;;4.18;1.30;;;15.80;99.90;;;;;;4864393;29;20050;-66
2022/10/01 11:38:28;;;;;;;5.03;1.30;;;16.10;99.90;;;;;;4874212;29;20048;-66
2022/10/01 11:41:17;;;;;;;4.47;1.10;;;16.20;99.90;;;;;;4890725;29;20057;-66
2022/10/01 11:44:01;;;;;;;6.80;1.40;;;16.30;99.90;;;;;;4876728;29;20523;-66
2022/10/01 11:46:52;;;;;;;5.57;1.70;;;16.40;99.90;;;;;;4867220;29;20053;-67
2022/10/01 11:49:42;;;;;;;7.70;1.65;;;16.50;99.90;;;;;;4875531;29;20053;-66
2022/10/01 11:52:26;;;;;;;8.30;1.58;;;16.50;99.90;;;;;;4870921;29;20048;-67
2022/10/01 11:58:49;;;;;;;8.30;1.48;;;16.50;99.90;;;;;;4876165;29;20080;-67
2022/10/01 12:01:04;;;;;;;12.43;1.77;;;16.40;99.90;;;;;;4877662;29;20413;-67
2022/10/01 12:03:39;;;;;;;9.18;1.95;;;16.30;99.90;;;;;;4878213;29;20389;-67
2022/10/01 12:06:13;;;;;;;9.57;1.80;;;16.40;99.90;;;;;;4872806;29;20052;-67
2022/10/01 12:08:47;;;;;;;13.02;2.20;;;16.40;99.90;;;;;;4874759;29;20135;-66
2022/10/01 12:11:28;;;;;;;11.57;2.05;;;16.40;99.90;;;;;;4851725;29;20128;-67
2022/10/01 12:14:07;;;;;;;12.88;1.92;;;16.50;99.90;;;;;;4875046;29;20542;-67
2022/10/01 12:16:55;;;;;;;14.00;2.42;;;16.50;99.90;;;;;;4888662;29;21338;-67
2022/10/01 12:19:35;;;;;;;14.88;2.50;;;16.50;99.90;;;;;;4874619;29;20124;-67
2022/10/01 12:22:44;;;;;;;11.10;2.30;;;16.60;99.90;;;;;;4872914;29;20574;-65
2022/10/01 12:25:13;;;;;;;13.25;2.30;;;16.60;99.90;;;;;;4860608;29;20061;-65
2022/10/01 12:27:43;;;;;;;14.90;2.50;;;16.80;99.90;;;;;;4855185;29;20092;-65
2022/10/01 12:30:17;;;;;;;13.05;2.13;;;16.90;99.90;;;;;;4858402;29;20534;-65
2022/10/01 12:33:30;;;;;;;11.30;2.28;;;16.90;99.90;;;;;;4862768;29;20053;-66
2022/10/01 12:36:07;;;;;;;15.18;2.55;;;17.10;99.90;;;;;;4858385;29;20523;-67
2022/10/01 12:38:49;;;;;;;12.95;2.05;;;17.20;99.90;;;;;;4872113;29;20080;-67
2022/10/01 12:41:40;;;;;;;9.02;2.13;;;17.30;99.90;;;;;;4866139;29;20056;-66
2022/10/01 12:44:25;;;;;;;11.80;2.00;;;17.40;99.90;;;;;;4867471;29;20061;-67
2022/10/01 12:47:10;;;;;;;8.38;1.92;;;17.60;99.90;;;;;;4869158;29;20128;-67
2022/10/01 12:49:50;;;;;;;17.08;2.20;;;17.90;99.90;;;;;;4885644;29;20492;-66
2022/10/01 12:52:42;;;;;;;15.02;2.10;;;18.10;99.90;;;;;;4874373;29;20559;-66
2022/10/01 12:55:19;;;;;;;13.30;2.13;;;17.90;99.90;;;;;;4860830;29;20672;-66
2022/10/01 12:57:56;;;;;;;11.40;1.85;;;17.60;99.90;;;;;;4871250;29;20053;-67
2022/10/01 13:00:25;;;;;;;7.57;1.52;;;17.30;99.90;;;;;;4871229;29;20531;-66
2022/10/01 13:03:11;;;;;;;5.80;1.60;;;17.00;99.90;;;;;;4872377;29;20476;-66
2022/10/01 13:06:02;;;;;;;5.00;1.30;;;16.70;99.90;;;;;;4852030;29;20475;-67
2022/10/01 13:09:05;;;;;;;6.32;1.30;;;16.50;99.90;;;;;;4870059;29;20089;-67
2022/10/01 13:11:49;;;;;;;7.25;1.50;;;16.20;99.90;;;;;;4870004;29;20059;-66
2022/10/01 13:14:17;;;;;;;8.30;1.45;;;16.10;99.90;;;;;;4878602;29;20057;-66
2022/10/01 13:17:08;;;;;;;5.47;1.50;;;15.90;99.90;;;;;;4856228;29;20045;-64